Time;durP1;ratioP1;P1;durP2;ratioP2;P2;SDS_P1;SDS_P2;PMS_P1;PMS_P2;Temp;Humidity;BMP_temperature;BMP_pressure;BME280_temperature;BME280_humidity;BME280_pressure;Samples;Min_cycle;Max_cycle;Signal;HPM_P1;HPM_P2
2022/04/24 00:01:54;;;;;;;;;;;;;;;11.96;52.29883;100596.9;;;;-81
2022/04/24 00:06:54;;;;;;;;;;;;;;;11.87;53.2959;100596.4;;;;-81
2022/04/24 00:11:53;;;;;;;;;;;;;;;11.82;52.89746;100597.5;;;;-82
2022/04/24 00:16:53;;;;;;;;;;;;;;;11.77;53.43945;100595.8;;;;-83
2022/04/24 00:21:59;;;;;;;;;;;;;;;11.72;53.31152;100593.3;;;;-82
2022/04/24 00:23:53;;;;;;;12.5;7.1;;;;;;;;;;;;;-83
2022/04/24 00:26:54;;;;;;;;;;;;;;;11.69;53.20508;100587.6;;;;-83
2022/04/24 00:31:53;;;;;;;;;;;;;;;11.65;53.59277;100590;;;;-83
2022/04/24 00:36:57;;;;;;;;;;;;;;;11.56;53.86133;100594.4;;;;-82
2022/04/24 00:41:53;;;;;;;;;;;;;;;11.54;53.98145;100589.5;;;;-80
2022/04/24 00:46:55;;;;;;;;;;;;;;;11.47;54.05176;100589.8;;;;-82
2022/04/24 00:51:53;;;;;;;;;;;;;;;11.42;54.08887;100585.4;;;;-83
2022/04/24 00:53:55;;;;;;;11.3;6.8;;;;;;;;;;;;;-82
2022/04/24 00:56:53;;;;;;;;;;;;;;;11.37;54.20605;100591;;;;-82
2022/04/24 01:02:02;;;;;;;;;;;;;;;11.33;54.51367;100597.4;;;;-82
2022/04/24 01:07:00;;;;;;;;;;;;;;;11.25;54.67188;100593.6;;;;-81
2022/04/24 01:11:53;;;;;;;;;;;;;;;11.2;55.34668;100591.1;;;;-83
2022/04/24 01:16:53;;;;;;;;;;;;;;;11.16;55.27344;100590.9;;;;-82
2022/04/24 01:21:55;;;;;;;;;;;;;;;11.11;55.3125;100599.2;;;;-83
2022/04/24 01:23:59;;;;;;;11.8;6.7;;;;;;;;;;;;;-83
2022/04/24 01:26:53;;;;;;;;;;;;;;;11.09;55.14355;100595.1;;;;-79
2022/04/24 01:31:53;;;;;;;;;;;;;;;11.05;55.08105;100597.2;;;;-84
2022/04/24 01:36:53;;;;;;;;;;;;;;;11.02;55.51367;100602.8;;;;-80
2022/04/24 01:41:55;;;;;;;;;;;;;;;10.99;55.24121;100598.3;;;;-76
2022/04/24 01:46:53;;;;;;;;;;;;;;;10.94;55.78125;100600.8;;;;-77
2022/04/24 01:51:57;;;;;;;;;;;;;;;10.89;55.59766;100605.2;;;;-75
2022/04/24 01:53:56;;;;;;;12.4;6;;;;;;;;;;;;;-76
2022/04/24 01:56:52;;;;;;;;;;;;;;;10.86;55.75;100603.3;;;;-78
2022/04/24 02:01:53;;;;;;;;;;;;;;;10.81;55.67676;100601.8;;;;-76
2022/04/24 02:06:53;;;;;;;;;;;;;;;10.81;55.59766;100608.5;;;;-76
2022/04/24 02:11:53;;;;;;;;;;;;;;;10.76;55.60156;100606.9;;;;-76
2022/04/24 02:16:53;;;;;;;;;;;;;;;10.73;55.63281;100607.4;;;;-76
2022/04/24 02:21:53;;;;;;;;;;;;;;;10.67;55.74805;100602.9;;;;-75
2022/04/24 02:23:57;;;;;;;8.7;5.3;;;;;;;;;;;;;-75
2022/04/24 02:26:52;;;;;;;;;;;;;;;10.59;55.95996;100605.3;;;;-77
2022/04/24 02:31:56;;;;;;;;;;;;;;;10.59;56.23828;100600.1;;;;-76
2022/04/24 02:36:54;;;;;;;;;;;;;;;10.53;56.40918;100600.9;;;;-75
2022/04/24 02:41:53;;;;;;;;;;;;;;;10.48;56.21289;100597.9;;;;-78
2022/04/24 02:46:52;;;;;;;;;;;;;;;10.46;56.54395;100605.5;;;;-77
2022/04/24 02:51:53;;;;;;;;;;;;;;;10.43;56.20801;100599.6;;;;-75
2022/04/24 02:53:57;;;;;;;8.8;5.2;;;;;;;;;;;;;-76
2022/04/24 02:56:53;;;;;;;;;;;;;;;10.4;56.40332;100597.3;;;;-76
2022/04/24 03:01:54;;;;;;;;;;;;;;;10.37;56.16602;100600.5;;;;-78
2022/04/24 03:06:53;;;;;;;;;;;;;;;10.34;56.11621;100600;;;;-76
2022/04/24 03:11:52;;;;;;;;;;;;;;;10.3;56.03516;100594.5;;;;-73
2022/04/24 03:16:53;;;;;;;;;;;;;;;10.25;56.40723;100595.9;;;;-75
2022/04/24 03:21:53;;;;;;;;;;;;;;;10.21;56.21191;100588.5;;;;-75
2022/04/24 03:24:00;;;;;;;8.7;4.8;;;;;;;;;;;;;-76
2022/04/24 03:26:52;;;;;;;;;;;;;;;10.15;56.61523;100589.1;;;;-76
2022/04/24 03:31:53;;;;;;;;;;;;;;;10.12;57.0459;100596.6;;;;-75
2022/04/24 03:36:53;;;;;;;;;;;;;;;10.08;56.80762;100595.3;;;;-76
2022/04/24 03:41:52;;;;;;;;;;;;;;;10.04;56.93457;100593.9;;;;-77
2022/04/24 03:46:53;;;;;;;;;;;;;;;9.99;57.00781;100593.2;;;;-77
2022/04/24 03:51:52;;;;;;;;;;;;;;;9.96;57.14844;100590.3;;;;-78
2022/04/24 03:53:59;;;;;;;9.1;4.7;;;;;;;;;;;;;-76
2022/04/24 03:56:52;;;;;;;;;;;;;;;9.94;57.30176;100592.1;;;;-78
2022/04/24 04:01:53;;;;;;;;;;;;;;;9.91;57.39648;100602;;;;-76
2022/04/24 04:06:53;;;;;;;;;;;;;;;9.83;57.66504;100605.9;;;;-75
2022/04/24 04:11:53;;;;;;;;;;;;;;;9.83;57.16504;100602.6;;;;-76
2022/04/24 04:16:53;;;;;;;;;;;;;;;9.82;57.2627;100599.9;;;;-76
2022/04/24 04:21:52;;;;;;;;;;;;;;;9.77;57.52344;100612.2;;;;-77
2022/04/24 04:24:00;;;;;;;8.2;4.5;;;;;;;;;;;;;-76
2022/04/24 04:26:53;;;;;;;;;;;;;;;9.74;57.18555;100604.6;;;;-76
2022/04/24 04:31:52;;;;;;;;;;;;;;;9.74;57.09668;100605.8;;;;-77
2022/04/24 04:36:53;;;;;;;;;;;;;;;9.71;56.92578;100615.9;;;;-76
2022/04/24 04:41:52;;;;;;;;;;;;;;;9.66;57.0752;100619;;;;-76
2022/04/24 04:46:53;;;;;;;;;;;;;;;9.66;57.06445;100621;;;;-75
2022/04/24 04:51:53;;;;;;;;;;;;;;;9.62;57.14844;100624.3;;;;-75
2022/04/24 04:54:03;;;;;;;8.3;4.5;;;;;;;;;;;;;-74
2022/04/24 04:56:52;;;;;;;;;;;;;;;9.62;57.39258;100629.4;;;;-75
2022/04/24 05:01:53;;;;;;;;;;;;;;;9.59;57.34375;100640.2;;;;-76
2022/04/24 05:06:52;;;;;;;;;;;;;;;9.56;57.78418;100647.7;;;;-76
2022/04/24 05:11:53;;;;;;;;;;;;;;;9.57;57.55273;100648.1;;;;-76
2022/04/24 05:16:53;;;;;;;;;;;;;;;9.59;57.69922;100657.5;;;;-77
2022/04/24 05:21:53;;;;;;;;;;;;;;;9.63;57.17188;100657.9;;;;-76
2022/04/24 05:24:00;;;;;;;7.5;4.1;;;;;;;;;;;;;-76
2022/04/24 05:26:52;;;;;;;;;;;;;;;9.65;57.16309;100665.6;;;;-75
2022/04/24 05:31:52;;;;;;;;;;;;;;;9.65;57.39746;100665.6;;;;-76
2022/04/24 05:36:52;;;;;;;;;;;;;;;9.67;57.54297;100670.4;;;;-76
2022/04/24 05:41:53;;;;;;;;;;;;;;;9.74;57.49609;100672;;;;-76
2022/04/24 05:46:53;;;;;;;;;;;;;;;10.03;57.12402;100675.4;;;;-75
2022/04/24 05:51:53;;;;;;;;;;;;;;;10.47;55.75684;100669.8;;;;-75
2022/04/24 05:54:01;;;;;;;7.4;4.4;;;;;;;;;;;;;-75
2022/04/24 05:56:52;;;;;;;;;;;;;;;10.89;54.91797;100678.3;;;;-76
2022/04/24 06:01:52;;;;;;;;;;;;;;;11.24;54.02344;100674.3;;;;-75
2022/04/24 06:06:53;;;;;;;;;;;;;;;11.58;53.36035;100677.2;;;;-78
2022/04/24 06:11:58;;;;;;;;;;;;;;;11.93;52.7207;100680.3;;;;-75
2022/04/24 06:16:53;;;;;;;;;;;;;;;12.2;52.29395;100690.3;;;;-76
2022/04/24 06:21:53;;;;;;;;;;;;;;;12.51;51.72559;100681.3;;;;-78
2022/04/24 06:24:01;;;;;;;8.4;4.4;;;;;;;;;;;;;-75
2022/04/24 06:26:52;;;;;;;;;;;;;;;12.8;50.97461;100685.9;;;;-75
2022/04/24 06:31:53;;;;;;;;;;;;;;;12.99;50.52539;100684.2;;;;-76
2022/04/24 06:36:52;;;;;;;;;;;;;;;13.19;50.21191;100684.5;;;;-78
2022/04/24 06:41:53;;;;;;;;;;;;;;;13.37;49.85059;100694.6;;;;-77
2022/04/24 06:46:53;;;;;;;;;;;;;;;13.46;49.58008;100691;;;;-77
2022/04/24 06:51:52;;;;;;;;;;;;;;;13.4;49.62891;100706.2;;;;-75
2022/04/24 06:54:04;;;;;;;9;4.6;;;;;;;;;;;;;-74
2022/04/24 06:56:52;;;;;;;;;;;;;;;13.36;49.72656;100700.5;;;;-75
2022/04/24 07:01:53;;;;;;;;;;;;;;;13.28;49.84082;100702.9;;;;-76
2022/04/24 07:06:52;;;;;;;;;;;;;;;13.22;50.00195;100704.1;;;;-77
2022/04/24 07:11:52;;;;;;;;;;;;;;;13.23;50.12598;100711.4;;;;-76
2022/04/24 07:16:53;;;;;;;;;;;;;;;13.29;50.06641;100704.3;;;;-75
2022/04/24 07:21:53;;;;;;;;;;;;;;;13.35;50.0166;100714.6;;;;-76
2022/04/24 07:24:04;;;;;;;7.3;4.4;;;;;;;;;;;;;-74
2022/04/24 07:26:53;;;;;;;;;;;;;;;13.41;49.86523;100712.9;;;;-76
2022/04/24 07:31:53;;;;;;;;;;;;;;;13.41;49.84375;100712.6;;;;-76
2022/04/24 07:36:52;;;;;;;;;;;;;;;13.4;50.01074;100716.4;;;;-77
2022/04/24 07:41:53;;;;;;;;;;;;;;;13.48;49.95215;100720.4;;;;-76
2022/04/24 07:46:53;;;;;;;;;;;;;;;13.57;49.86133;100725;;;;-77
2022/04/24 07:51:52;;;;;;;;;;;;;;;13.7;49.80957;100720.5;;;;-75
2022/04/24 07:54:05;;;;;;;8.5;4.4;;;;;;;;;;;;;-76
2022/04/24 07:56:53;;;;;;;;;;;;;;;13.96;49.52344;100713.7;;;;-75
2022/04/24 08:01:53;;;;;;;;;;;;;;;14.32;48.93359;100726.2;;;;-79
2022/04/24 08:06:52;;;;;;;;;;;;;;;14.65;48.51855;100723.2;;;;-77
2022/04/24 08:11:53;;;;;;;;;;;;;;;14.88;48.2168;100722.8;;;;-77
2022/04/24 08:16:53;;;;;;;;;;;;;;;15.08;47.87891;100729.5;;;;-74
2022/04/24 08:21:52;;;;;;;;;;;;;;;15.48;47.42383;100730.2;;;;-78
2022/04/24 08:24:07;;;;;;;7.6;4.4;;;;;;;;;;;;;-74
2022/04/24 08:26:53;;;;;;;;;;;;;;;15.86;46.94531;100733.5;;;;-74
2022/04/24 08:31:52;;;;;;;;;;;;;;;16.22;46.34961;100736.2;;;;-76
2022/04/24 08:36:53;;;;;;;;;;;;;;;16.58;45.79883;100732.2;;;;-75
2022/04/24 08:41:53;;;;;;;;;;;;;;;16.95;45.15527;100733.7;;;;-76
2022/04/24 08:46:53;;;;;;;;;;;;;;;17.3;44.85156;100736.5;;;;-77
2022/04/24 08:51:52;;;;;;;;;;;;;;;17.67;44.36523;100733.1;;;;-76
2022/04/24 08:54:08;;;;;;;6.7;4.4;;;;;;;;;;;;;-76
2022/04/24 08:56:56;;;;;;;;;;;;;;;17.95;44.04102;100734.6;;;;-76
2022/04/24 09:01:53;;;;;;;;;;;;;;;18.27;43.69727;100731.1;;;;-76
2022/04/24 09:07:02;;;;;;;;;;;;;;;18.64;43.06152;100735.5;;;;-76
2022/04/24 09:11:52;;;;;;;;;;;;;;;18.97;42.83105;100740.7;;;;-77
2022/04/24 09:16:55;;;;;;;;;;;;;;;19.25;42.36719;100754.6;;;;-76
2022/04/24 09:21:53;;;;;;;;;;;;;;;19.56;41.75684;100750.6;;;;-76
2022/04/24 09:24:11;;;;;;;9.3;4.8;;;;;;;;;;;;;-76
2022/04/24 09:26:59;;;;;;;;;;;;;;;19.83;41.26758;100748.5;;;;-76
2022/04/24 09:31:53;;;;;;;;;;;;;;;20.03;41.21875;100746.9;;;;-77
2022/04/24 09:37:02;;;;;;;;;;;;;;;20.33;40.76465;100749.3;;;;-77
2022/04/24 09:41:52;;;;;;;;;;;;;;;20.56;40.62598;100756.1;;;;-77
2022/04/24 09:46:52;;;;;;;;;;;;;;;20.86;40.51563;100747.8;;;;-77
2022/04/24 09:51:53;;;;;;;;;;;;;;;21.22;39.76855;100768.6;;;;-76
2022/04/24 09:54:13;;;;;;;7.8;4.5;;;;;;;;;;;;;-69
2022/04/24 09:56:53;;;;;;;;;;;;;;;21.46;38.52637;100761.7;;;;-70
2022/04/24 10:01:53;;;;;;;;;;;;;;;21.62;38.81641;100757;;;;-70
2022/04/24 10:06:53;;;;;;;;;;;;;;;21.85;38.36426;100751.4;;;;-69
2022/04/24 10:11:52;;;;;;;;;;;;;;;22.05;37.48438;100760.5;;;;-71
2022/04/24 10:17:03;;;;;;;;;;;;;;;22.24;37.7998;100760.9;;;;-75
2022/04/24 10:22:01;;;;;;;;;;;;;;;22.54;37.3877;100763.6;;;;-74
2022/04/24 10:24:16;;;;;;;7.6;3.7;;;;;;;;;;;;;-74
2022/04/24 10:26:59;;;;;;;;;;;;;;;22.7;36.92871;100773.3;;;;-75
2022/04/24 10:31:53;;;;;;;;;;;;;;;22.91;36.20898;100770.4;;;;-74
2022/04/24 10:37:04;;;;;;;;;;;;;;;23.1;35.50781;100768.4;;;;-74
2022/04/24 10:42:01;;;;;;;;;;;;;;;23.27;35.74219;100763.1;;;;-75
2022/04/24 10:46:57;;;;;;;;;;;;;;;23.55;35.20898;100764.8;;;;-74
2022/04/24 10:52:01;;;;;;;;;;;;;;;23.79;34.22266;100763.7;;;;-75
2022/04/24 10:54:19;;;;;;;5.2;2.3;;;;;;;;;;;;;-75
2022/04/24 10:56:52;;;;;;;;;;;;;;;23.9;33.75781;100751.5;;;;-76
2022/04/24 11:01:53;;;;;;;;;;;;;;;24.07;33.53906;100759.5;;;;-75
2022/04/24 11:07:02;;;;;;;;;;;;;;;24.22;32.93555;100755.7;;;;-75
2022/04/24 11:11:55;;;;;;;;;;;;;;;24.38;33.01758;100752.4;;;;-75
2022/04/24 11:16:56;;;;;;;;;;;;;;;24.52;32.00781;100745.5;;;;-75
2022/04/24 11:21:57;;;;;;;;;;;;;;;24.7;32.42676;100740.7;;;;-73
2022/04/24 11:24:25;;;;;;;5.8;2;;;;;;;;;;;;;-75
2022/04/24 11:26:54;;;;;;;;;;;;;;;24.8;31.72754;100739.1;;;;-75
2022/04/24 11:31:56;;;;;;;;;;;;;;;25;31.75293;100736.5;;;;-76
2022/04/24 11:36:54;;;;;;;;;;;;;;;25.03;31.36035;100745.8;;;;-73
2022/04/24 11:41:55;;;;;;;;;;;;;;;24.99;30.97461;100751;;;;-73
2022/04/24 11:51:52;;;;;;;;;;;;;;;24.99;30.01172;100749.1;;;;-74
2022/04/24 11:54:28;;;;;;;3.8;1.9;;;;;;;;;;;;;-74
2022/04/24 11:56:56;;;;;;;;;;;;;;;25.1;29.99609;100743.5;;;;-73
2022/04/24 12:01:59;;;;;;;;;;;;;;;25.21;29.80664;100743.5;;;;-75
2022/04/24 12:06:52;;;;;;;;;;;;;;;25.4;29.2959;100752.9;;;;-74
2022/04/24 12:11:52;;;;;;;;;;;;;;;25.32;29.7666;100751.6;;;;-74
2022/04/24 12:16:56;;;;;;;;;;;;;;;25.41;30.11035;100753.2;;;;-73
2022/04/24 12:21:54;;;;;;;;;;;;;;;25.55;29.67676;100753.1;;;;-74
2022/04/24 12:24:29;;;;;;;3.3;1.6;;;;;;;;;;;;;-75
2022/04/24 12:26:54;;;;;;;;;;;;;;;25.63;29.10156;100745;;;;-75
2022/04/24 12:31:52;;;;;;;;;;;;;;;25.69;28.71094;100743.7;;;;-75
2022/04/24 12:36:56;;;;;;;;;;;;;;;25.73;28.68945;100754.9;;;;-73
2022/04/24 12:41:52;;;;;;;;;;;;;;;25.87;28.96582;100751.2;;;;-75
2022/04/24 12:46:52;;;;;;;;;;;;;;;26.06;28.43066;100748.7;;;;-74
2022/04/24 12:51:52;;;;;;;;;;;;;;;26.11;28.49219;100752.5;;;;-73
2022/04/24 12:54:33;;;;;;;4.1;1.6;;;;;;;;;;;;;-85
2022/04/24 12:56:53;;;;;;;;;;;;;;;26.21;28.59277;100751.3;;;;-81
2022/04/24 13:01:53;;;;;;;;;;;;;;;26.28;28.50293;100730.1;;;;-80
2022/04/24 13:06:55;;;;;;;;;;;;;;;26.41;28.94238;100740.9;;;;-82
2022/04/24 13:11:53;;;;;;;;;;;;;;;26.32;28.50586;100735.8;;;;-84
2022/04/24 13:21:56;;;;;;;;;;;;;;;26.58;29.12793;100737.9;;;;-85
2022/04/24 13:24:36;;;;;;;3.5;1.6;;;;;;;;;;;;;-84
2022/04/24 13:26:52;;;;;;;;;;;;;;;26.61;29.08301;100754.3;;;;-83
2022/04/24 13:31:56;;;;;;;;;;;;;;;26.6;28.9082;100738.9;;;;-84
2022/04/24 13:38:17;;;;;;;;;;;;;;;26.67;28.76074;100736.3;;;;-84
2022/04/24 13:41:53;;;;;;;;;;;;;;;26.63;28.41992;100736.4;;;;-84
2022/04/24 13:46:52;;;;;;;;;;;;;;;26.67;29.28516;100744;;;;-85
2022/04/24 13:51:58;;;;;;;;;;;;;;;26.72;28.78711;100752;;;;-85
2022/04/24 13:54:39;;;;;;;4.2;1.7;;;;;;;;;;;;;-83
2022/04/24 13:56:56;;;;;;;;;;;;;;;26.71;29.15918;100754.4;;;;-82
2022/04/24 14:01:52;;;;;;;;;;;;;;;26.75;29.2207;100756.4;;;;-84
2022/04/24 14:06:56;;;;;;;;;;;;;;;26.65;29.42383;100762.2;;;;-85
2022/04/24 14:11:53;;;;;;;;;;;;;;;26.56;29.60449;100770.6;;;;-85
2022/04/24 14:16:54;;;;;;;;;;;;;;;26.52;29.88086;100769.4;;;;-86
2022/04/24 14:21:55;;;;;;;;;;;;;;;26.3;29.93652;100765;;;;-84
2022/04/24 14:24:44;;;;;;;6;2.3;;;;;;;;;;;;;-84
2022/04/24 14:26:53;;;;;;;;;;;;;;;26.23;30.30469;100763;;;;-83
2022/04/24 14:31:58;;;;;;;;;;;;;;;26.23;30.23438;100763.6;;;;-81
2022/04/24 14:36:55;;;;;;;;;;;;;;;26.16;30.55566;100769.4;;;;-85
2022/04/24 14:41:54;;;;;;;;;;;;;;;26.11;30.36523;100766.6;;;;-85
2022/04/24 14:56:52;;;;;;;;;;;;;;;25.76;30.79492;100782.8;;;;-85
2022/04/24 15:01:53;;;;;;;;;;;;;;;25.69;30.83691;100788.2;;;;-84
2022/04/24 15:07:02;;;;;;;;;;;;;;;25.64;31.05371;100796;;;;-85
2022/04/24 15:11:53;;;;;;;;;;;;;;;25.48;30.98535;100789.5;;;;-85
2022/04/24 15:16:54;;;;;;;;;;;;;;;25.34;31.08008;100801.8;;;;-84
2022/04/24 15:21:59;;;;;;;;;;;;;;;25.2;31.11719;100802.5;;;;-84
2022/04/24 15:24:52;;;;;;;5.6;2.4;;;;;;;;;;;;;-84
2022/04/24 15:26:59;;;;;;;;;;;;;;;25.05;31.15332;100809.3;;;;-80
2022/04/24 15:31:52;;;;;;;;;;;;;;;24.87;31.37207;100810.8;;;;-83
2022/04/24 15:36:53;;;;;;;;;;;;;;;24.7;31.49902;100810.1;;;;-83
2022/04/24 15:41:54;;;;;;;;;;;;;;;24.54;31.4541;100812.6;;;;-85
2022/04/24 15:46:54;;;;;;;;;;;;;;;24.41;31.61816;100810.6;;;;-83
2022/04/24 15:51:54;;;;;;;;;;;;;;;24.18;31.76465;100817.1;;;;-83
2022/04/24 15:54:55;;;;;;;4.5;2.2;;;;;;;;;;;;;-82
2022/04/24 15:56:53;;;;;;;;;;;;;;;23.99;31.9707;100822.3;;;;-82
2022/04/24 16:01:55;;;;;;;;;;;;;;;23.86;31.98438;100822.7;;;;-84
2022/04/24 16:06:52;;;;;;;;;;;;;;;23.68;32.2959;100818.7;;;;-83
2022/04/24 16:11:55;;;;;;;;;;;;;;;23.57;32.42578;100829.2;;;;-80
2022/04/24 16:16:52;;;;;;;;;;;;;;;23.39;32.62109;100829;;;;-84
2022/04/24 16:21:52;;;;;;;;;;;;;;;23.2;32.84961;100835.9;;;;-80
2022/04/24 16:24:56;;;;;;;4.3;2.2;;;;;;;;;;;;;-81
2022/04/24 16:26:53;;;;;;;;;;;;;;;22.97;32.9834;100838.1;;;;-82
2022/04/24 16:31:54;;;;;;;;;;;;;;;22.79;33.24707;100847.7;;;;-84
2022/04/24 16:36:52;;;;;;;;;;;;;;;22.59;33.37012;100849.7;;;;-83
2022/04/24 16:41:52;;;;;;;;;;;;;;;22.33;33.54688;100844.1;;;;-81
2022/04/24 16:47:04;;;;;;;;;;;;;;;22.11;33.69141;100859.7;;;;-83
2022/04/24 17:01:55;;;;;;;;;;;;;;;21.51;34.38184;100865.9;;;;-83
2022/04/24 17:06:53;;;;;;;;;;;;;;;21.2;34.50684;100856.5;;;;-85
2022/04/24 17:11:52;;;;;;;;;;;;;;;20.91;35.03516;100860.5;;;;-84
2022/04/24 17:16:54;;;;;;;;;;;;;;;20.7;35.375;100860.3;;;;-82
2022/04/24 17:21:52;;;;;;;;;;;;;;;20.47;35.71289;100864.1;;;;-81
2022/04/24 17:25:03;;;;;;;5.4;2.4;;;;;;;;;;;;;-82
2022/04/24 17:26:53;;;;;;;;;;;;;;;20.26;36.0166;100866.1;;;;-82
2022/04/24 17:31:54;;;;;;;;;;;;;;;20;36.33887;100874.3;;;;-81
2022/04/24 17:36:54;;;;;;;;;;;;;;;19.75;36.68457;100884.7;;;;-81
2022/04/24 17:41:52;;;;;;;;;;;;;;;19.46;36.94629;100887.8;;;;-82
2022/04/24 17:46:55;;;;;;;;;;;;;;;19.17;37.25391;100884.5;;;;-80
2022/04/24 17:51:53;;;;;;;;;;;;;;;18.92;37.53027;100906;;;;-83
2022/04/24 17:55:06;;;;;;;5.2;2.2;;;;;;;;;;;;;-83
2022/04/24 17:56:53;;;;;;;;;;;;;;;18.56;37.94434;100901;;;;-83
2022/04/24 18:01:54;;;;;;;;;;;;;;;18.25;38.12402;100914;;;;-80
2022/04/24 18:06:53;;;;;;;;;;;;;;;17.95;38.49707;100916.8;;;;-83
2022/04/24 18:11:52;;;;;;;;;;;;;;;17.59;38.93262;100920.1;;;;-83
2022/04/24 18:16:53;;;;;;;;;;;;;;;17.3;39.22559;100922.9;;;;-81
2022/04/24 18:21:53;;;;;;;;;;;;;;;17;39.40332;100925.3;;;;-83
2022/04/24 18:25:11;;;;;;;4.7;2.2;;;;;;;;;;;;;-82
2022/04/24 18:26:52;;;;;;;;;;;;;;;16.59;40.32031;100927.8;;;;-82
2022/04/24 18:31:53;;;;;;;;;;;;;;;16.23;40.86621;100938.1;;;;-81
2022/04/24 18:41:53;;;;;;;;;;;;;;;15.68;41.78809;100946.2;;;;-81
2022/04/24 18:46:53;;;;;;;;;;;;;;;15.39;42.06641;100950.9;;;;-81
2022/04/24 18:51:53;;;;;;;;;;;;;;;15.14;42.41602;100960.7;;;;-82
2022/04/24 18:55:09;;;;;;;5.1;2.1;;;;;;;;;;;;;-82
2022/04/24 18:56:52;;;;;;;;;;;;;;;14.84;42.91797;100965.4;;;;-82
2022/04/24 19:01:52;;;;;;;;;;;;;;;14.63;43.37305;100972;;;;-84
2022/04/24 19:11:54;;;;;;;;;;;;;;;14.15;44.18262;100985;;;;-80
2022/04/24 19:16:55;;;;;;;;;;;;;;;13.93;44.91406;100992.9;;;;-81
2022/04/24 19:21:52;;;;;;;;;;;;;;;13.71;45.72559;100997.4;;;;-79
2022/04/24 19:25:11;;;;;;;6;2.2;;;;;;;;;;;;;-81
2022/04/24 19:26:52;;;;;;;;;;;;;;;13.55;45.67578;101004.7;;;;-82
2022/04/24 19:31:53;;;;;;;;;;;;;;;13.37;45.88184;101008.8;;;;-82
2022/04/24 19:36:53;;;;;;;;;;;;;;;13.2;46.44824;101014;;;;-81
2022/04/24 19:41:53;;;;;;;;;;;;;;;13.03;46.50781;101017.6;;;;-80
2022/04/24 19:46:52;;;;;;;;;;;;;;;12.84;46.98242;101020.2;;;;-82
2022/04/24 19:51:52;;;;;;;;;;;;;;;12.72;47.15039;101029.9;;;;-81
2022/04/24 19:55:12;;;;;;;7.7;2.6;;;;;;;;;;;;;-81
2022/04/24 19:56:53;;;;;;;;;;;;;;;12.58;47.23438;101028.6;;;;-80
2022/04/24 20:01:52;;;;;;;;;;;;;;;12.45;47.59277;101036.1;;;;-80
2022/04/24 20:06:53;;;;;;;;;;;;;;;12.33;47.87012;101037.8;;;;-81
2022/04/24 20:11:56;;;;;;;;;;;;;;;12.17;48.34668;101045.6;;;;-83
2022/04/24 20:16:56;;;;;;;;;;;;;;;12.02;48.97949;101044.6;;;;-80
2022/04/24 20:21:53;;;;;;;;;;;;;;;11.91;49.17969;101048.1;;;;-83
2022/04/24 20:25:15;;;;;;;6.6;2.3;;;;;;;;;;;;;-82
2022/04/24 20:26:52;;;;;;;;;;;;;;;11.81;49.23535;101049.2;;;;-81
2022/04/24 20:31:52;;;;;;;;;;;;;;;11.69;49.55859;101056.3;;;;-81
2022/04/24 20:36:53;;;;;;;;;;;;;;;11.63;49.42773;101058.4;;;;-82
2022/04/24 20:41:52;;;;;;;;;;;;;;;11.55;50.04688;101055.2;;;;-83
2022/04/24 20:46:53;;;;;;;;;;;;;;;11.42;50.12109;101050.8;;;;-81
2022/04/24 20:51:52;;;;;;;;;;;;;;;11.35;50.34766;101054.6;;;;-81
2022/04/24 20:55:14;;;;;;;6.6;2.5;;;;;;;;;;;;;-80
2022/04/24 20:56:52;;;;;;;;;;;;;;;11.22;51.05859;101057.6;;;;-82
2022/04/24 21:01:54;;;;;;;;;;;;;;;11.15;51.25195;101052.5;;;;-80
2022/04/24 21:06:52;;;;;;;;;;;;;;;11.1;51.44824;101065.7;;;;-83
2022/04/24 21:11:52;;;;;;;;;;;;;;;11.01;51.41406;101060.2;;;;-83
2022/04/24 21:16:53;;;;;;;;;;;;;;;10.9;52.46191;101070.4;;;;-82
2022/04/24 21:21:55;;;;;;;;;;;;;;;10.85;52.38965;101078.7;;;;-81
2022/04/24 21:25:16;;;;;;;8;2.9;;;;;;;;;;;;;-83
2022/04/24 21:26:52;;;;;;;;;;;;;;;10.77;52.45801;101083;;;;-82
2022/04/24 21:31:52;;;;;;;;;;;;;;;10.75;52.22168;101083.8;;;;-84
2022/04/24 21:36:52;;;;;;;;;;;;;;;10.73;52.11816;101087.3;;;;-81
2022/04/24 21:41:52;;;;;;;;;;;;;;;10.63;52.46387;101093;;;;-81
2022/04/24 21:46:53;;;;;;;;;;;;;;;10.6;52.14746;101099.3;;;;-81
2022/04/24 21:51:52;;;;;;;;;;;;;;;10.49;52.05566;101098.6;;;;-81
2022/04/24 21:55:16;;;;;;;6.1;2.9;;;;;;;;;;;;;-81
2022/04/24 21:56:52;;;;;;;;;;;;;;;10.4;52.94824;101098.5;;;;-83
2022/04/24 22:06:54;;;;;;;;;;;;;;;10.24;53.21875;101098.5;;;;-82
2022/04/24 22:11:54;;;;;;;;;;;;;;;10.21;53.12598;101101.8;;;;-80
2022/04/24 22:16:52;;;;;;;;;;;;;;;10.18;53.15625;101104.8;;;;-81
2022/04/24 22:25:15;;;;;;;6.2;3.2;;;;;;;;;;;;;-81
2022/04/24 22:26:53;;;;;;;;;;;;;;;10.1;53.16797;101116.1;;;;-81
2022/04/24 22:31:53;;;;;;;;;;;;;;;10.02;53.37012;101123;;;;-81
2022/04/24 22:36:53;;;;;;;;;;;;;;;9.95;53.74023;101125.1;;;;-82
2022/04/24 22:41:52;;;;;;;;;;;;;;;9.92;53.30273;101116.8;;;;-81
2022/04/24 22:46:53;;;;;;;;;;;;;;;9.86;53.50684;101122.3;;;;-83
2022/04/24 22:51:52;;;;;;;;;;;;;;;9.84;53.54883;101126.2;;;;-81
2022/04/24 22:55:16;;;;;;;5.8;3.3;;;;;;;;;;;;;-82
2022/04/24 22:56:54;;;;;;;;;;;;;;;9.79;53.53125;101129.8;;;;-81
2022/04/24 23:01:52;;;;;;;;;;;;;;;9.72;53.56641;101129.2;;;;-81
2022/04/24 23:06:52;;;;;;;;;;;;;;;9.68;53.75195;101129.5;;;;-81
2022/04/24 23:11:53;;;;;;;;;;;;;;;9.65;53.54688;101131.4;;;;-81
2022/04/24 23:16:52;;;;;;;;;;;;;;;9.58;53.70703;101135.3;;;;-82
2022/04/24 23:21:57;;;;;;;;;;;;;;;9.55;53.51465;101135.6;;;;-79
2022/04/24 23:25:16;;;;;;;6.2;3.2;;;;;;;;;;;;;-81
2022/04/24 23:27:02;;;;;;;;;;;;;;;9.47;53.50391;101135.4;;;;-81
2022/04/24 23:31:53;;;;;;;;;;;;;;;9.46;53.42383;101135.8;;;;-82
2022/04/24 23:36:58;;;;;;;;;;;;;;;9.47;53.55859;101135.5;;;;-80
2022/04/24 23:41:53;;;;;;;;;;;;;;;9.52;53.27539;101133.2;;;;-81
2022/04/24 23:46:54;;;;;;;;;;;;;;;9.54;53.23242;101135;;;;-82
2022/04/24 23:51:52;;;;;;;;;;;;;;;9.56;54.14844;101131.4;;;;-82
2022/04/24 23:55:17;;;;;;;7.3;3.4;;;;;;;;;;;;;-81
2022/04/24 23:56:54;;;;;;;;;;;;;;;9.55;53.54688;101130.4;;;;-80
